sensor_id;sensor_type;location;lat;lon;timestamp;pressure;altitude;pressure_sealevel;temperature
70819;BMP280;58439;51.046;13.692;2023-05-10T00:02:55;99540.63;;;13.30
70819;BMP280;58439;51.046;13.692;2023-05-10T00:05:44;99537.88;;;13.25
70819;BMP280;58439;51.046;13.692;2023-05-10T00:08:48;99537.50;;;13.22
70819;BMP280;58439;51.046;13.692;2023-05-10T00:11:43;99533.06;;;13.22
70819;BMP280;58439;51.046;13.692;2023-05-10T00:14:13;99533.75;;;13.18
70819;BMP280;58439;51.046;13.692;2023-05-10T00:16:49;99530.81;;;13.08
70819;BMP280;58439;51.046;13.692;2023-05-10T00:20:12;99531.50;;;13.03
70819;BMP280;58439;51.046;13.692;2023-05-10T00:23:10;99523.03;;;13.01
70819;BMP280;58439;51.046;13.692;2023-05-10T00:25:47;99526.47;;;13.01
70819;BMP280;58439;51.046;13.692;2023-05-10T00:28:54;99522.88;;;12.96
70819;BMP280;58439;51.046;13.692;2023-05-10T00:33:06;99513.66;;;12.93
70819;BMP280;58439;51.046;13.692;2023-05-10T00:35:53;99514.50;;;12.87
70819;BMP280;58439;51.046;13.692;2023-05-10T00:38:24;99511.63;;;12.77
70819;BMP280;58439;51.046;13.692;2023-05-10T00:40:58;99504.19;;;12.74
70819;BMP280;58439;51.046;13.692;2023-05-10T00:43:31;99506.47;;;12.70
70819;BMP280;58439;51.046;13.692;2023-05-10T00:45:58;99505.50;;;12.65
70819;BMP280;58439;51.046;13.692;2023-05-10T00:48:32;99498.53;;;12.59
70819;BMP280;58439;51.046;13.692;2023-05-10T00:51:39;99506.63;;;12.57
70819;BMP280;58439;51.046;13.692;2023-05-10T00:55:35;99507.03;;;12.54
70819;BMP280;58439;51.046;13.692;2023-05-10T00:59:10;99506.09;;;12.49
70819;BMP280;58439;51.046;13.692;2023-05-10T01:01:54;99498.81;;;12.51
70819;BMP280;58439;51.046;13.692;2023-05-10T01:04:21;99499.22;;;12.48
70819;BMP280;58439;51.046;13.692;2023-05-10T01:06:53;99488.81;;;12.41
70819;BMP280;58439;51.046;13.692;2023-05-10T01:09:21;99498.78;;;12.32
70819;BMP280;58439;51.046;13.692;2023-05-10T01:11:57;99493.00;;;12.30
70819;BMP280;58439;51.046;13.692;2023-05-10T01:14:27;99494.22;;;12.28
70819;BMP280;58439;51.046;13.692;2023-05-10T01:17:00;99491.59;;;12.28
70819;BMP280;58439;51.046;13.692;2023-05-10T01:19:31;99494.66;;;12.25
70819;BMP280;58439;51.046;13.692;2023-05-10T01:35:19;99488.63;;;11.99
70819;BMP280;58439;51.046;13.692;2023-05-10T01:38:07;99484.59;;;11.97
70819;BMP280;58439;51.046;13.692;2023-05-10T01:41:06;99481.97;;;11.97
70819;BMP280;58439;51.046;13.692;2023-05-10T01:48:29;99484.84;;;11.95
70819;BMP280;58439;51.046;13.692;2023-05-10T02:00:44;99480.44;;;11.89
70819;BMP280;58439;51.046;13.692;2023-05-10T02:03:49;99478.88;;;11.81
70819;BMP280;58439;51.046;13.692;2023-05-10T02:06:46;99475.50;;;11.81
70819;BMP280;58439;51.046;13.692;2023-05-10T02:09:39;99467.84;;;11.79
70819;BMP280;58439;51.046;13.692;2023-05-10T02:12:47;99470.75;;;11.71
70819;BMP280;58439;51.046;13.692;2023-05-10T02:16:12;99467.97;;;11.59
70819;BMP280;58439;51.046;13.692;2023-05-10T02:19:53;99470.91;;;11.51
70819;BMP280;58439;51.046;13.692;2023-05-10T02:29:15;99472.91;;;11.49
70819;BMP280;58439;51.046;13.692;2023-05-10T02:31:45;99471.53;;;11.47
70819;BMP280;58439;51.046;13.692;2023-05-10T02:34:13;99468.28;;;11.45
70819;BMP280;58439;51.046;13.692;2023-05-10T02:36:41;99470.09;;;11.44
70819;BMP280;58439;51.046;13.692;2023-05-10T02:39:25;99463.47;;;11.42
70819;BMP280;58439;51.046;13.692;2023-05-10T02:42:43;99460.72;;;11.30
70819;BMP280;58439;51.046;13.692;2023-05-10T02:49:22;99474.69;;;11.24
70819;BMP280;58439;51.046;13.692;2023-05-10T02:56:57;99470.88;;;11.13
70819;BMP280;58439;51.046;13.692;2023-05-10T03:00:11;99469.47;;;11.17
70819;BMP280;58439;51.046;13.692;2023-05-10T03:02:50;99468.06;;;11.15
70819;BMP280;58439;51.046;13.692;2023-05-10T03:05:33;99472.56;;;11.08
70819;BMP280;58439;51.046;13.692;2023-05-10T03:08:10;99473.78;;;10.98
70819;BMP280;58439;51.046;13.692;2023-05-10T03:12:03;99479.88;;;10.92
70819;BMP280;58439;51.046;13.692;2023-05-10T03:15:56;99477.28;;;10.86
70819;BMP280;58439;51.046;13.692;2023-05-10T03:26:33;99465.06;;;10.80
70819;BMP280;58439;51.046;13.692;2023-05-10T03:29:29;99459.81;;;10.80
70819;BMP280;58439;51.046;13.692;2023-05-10T03:32:06;99456.38;;;10.79
70819;BMP280;58439;51.046;13.692;2023-05-10T03:34:45;99458.41;;;10.77
70819;BMP280;58439;51.046;13.692;2023-05-10T03:37:24;99451.97;;;10.80
70819;BMP280;58439;51.046;13.692;2023-05-10T03:39:51;99453.75;;;10.79
70819;BMP280;58439;51.046;13.692;2023-05-10T03:42:19;99455.94;;;10.82
70819;BMP280;58439;51.046;13.692;2023-05-10T03:44:46;99459.56;;;10.81
70819;BMP280;58439;51.046;13.692;2023-05-10T03:47:13;99473.69;;;10.80
70819;BMP280;58439;51.046;13.692;2023-05-10T03:49:40;99474.25;;;10.82
70819;BMP280;58439;51.046;13.692;2023-05-10T03:52:08;99476.69;;;10.84
70819;BMP280;58439;51.046;13.692;2023-05-10T03:54:35;99479.69;;;10.87
70819;BMP280;58439;51.046;13.692;2023-05-10T03:57:02;99475.84;;;10.90
70819;BMP280;58439;51.046;13.692;2023-05-10T03:59:31;99474.81;;;10.91
70819;BMP280;58439;51.046;13.692;2023-05-10T04:01:58;99474.03;;;10.90
70819;BMP280;58439;51.046;13.692;2023-05-10T04:04:25;99480.84;;;10.91
70819;BMP280;58439;51.046;13.692;2023-05-10T04:10:02;99480.22;;;11.02
70819;BMP280;58439;51.046;13.692;2023-05-10T04:13:15;99473.13;;;11.10
70819;BMP280;58439;51.046;13.692;2023-05-10T04:15:47;99472.75;;;11.13
70819;BMP280;58439;51.046;13.692;2023-05-10T04:18:19;99473.69;;;11.18
70819;BMP280;58439;51.046;13.692;2023-05-10T04:21:37;99470.03;;;11.26
70819;BMP280;58439;51.046;13.692;2023-05-10T04:29:27;99469.03;;;11.52
70819;BMP280;58439;51.046;13.692;2023-05-10T04:32:55;99467.59;;;11.63
70819;BMP280;58439;51.046;13.692;2023-05-10T05:11:32;99459.19;;;12.89
70819;BMP280;58439;51.046;13.692;2023-05-10T05:15:16;99472.34;;;13.00
70819;BMP280;58439;51.046;13.692;2023-05-10T05:18:54;99465.34;;;13.13
70819;BMP280;58439;51.046;13.692;2023-05-10T05:31:22;99456.59;;;13.54
70819;BMP280;58439;51.046;13.692;2023-05-10T05:38:51;99455.56;;;13.78
70819;BMP280;58439;51.046;13.692;2023-05-10T05:41:27;99454.72;;;13.84
70819;BMP280;58439;51.046;13.692;2023-05-10T05:44:00;99453.06;;;13.95
70819;BMP280;58439;51.046;13.692;2023-05-10T05:46:56;99463.00;;;14.05
70819;BMP280;58439;51.046;13.692;2023-05-10T05:53:41;99458.50;;;14.29
70819;BMP280;58439;51.046;13.692;2023-05-10T05:56:14;99462.38;;;14.38
70819;BMP280;58439;51.046;13.692;2023-05-10T05:58:51;99460.16;;;14.46
70819;BMP280;58439;51.046;13.692;2023-05-10T06:01:21;99465.88;;;14.55
70819;BMP280;58439;51.046;13.692;2023-05-10T06:03:48;99464.00;;;14.67
70819;BMP280;58439;51.046;13.692;2023-05-10T06:06:20;99461.34;;;14.79
70819;BMP280;58439;51.046;13.692;2023-05-10T06:08:47;99462.53;;;14.88
70819;BMP280;58439;51.046;13.692;2023-05-10T06:11:14;99460.56;;;14.95
70819;BMP280;58439;51.046;13.692;2023-05-10T06:13:41;99456.97;;;15.01
70819;BMP280;58439;51.046;13.692;2023-05-10T06:16:09;99464.97;;;15.06
70819;BMP280;58439;51.046;13.692;2023-05-10T06:18:36;99468.03;;;15.15
70819;BMP280;58439;51.046;13.692;2023-05-10T06:21:04;99468.88;;;15.21
70819;BMP280;58439;51.046;13.692;2023-05-10T06:23:31;99472.50;;;15.31
70819;BMP280;58439;51.046;13.692;2023-05-10T06:26:46;99471.19;;;15.51
70819;BMP280;58439;51.046;13.692;2023-05-10T06:35:19;99466.59;;;15.80
70819;BMP280;58439;51.046;13.692;2023-05-10T06:39:52;99472.97;;;16.01
70819;BMP280;58439;51.046;13.692;2023-05-10T06:55:50;99465.84;;;16.45
70819;BMP280;58439;51.046;13.692;2023-05-10T06:58:32;99472.31;;;16.59
70819;BMP280;58439;51.046;13.692;2023-05-10T07:01:04;99477.16;;;16.67
70819;BMP280;58439;51.046;13.692;2023-05-10T07:03:32;99476.94;;;16.69
70819;BMP280;58439;51.046;13.692;2023-05-10T07:06:07;99468.75;;;16.75
70819;BMP280;58439;51.046;13.692;2023-05-10T07:08:44;99470.72;;;16.85
70819;BMP280;58439;51.046;13.692;2023-05-10T07:11:11;99473.41;;;16.90
70819;BMP280;58439;51.046;13.692;2023-05-10T07:13:53;99469.81;;;17.01
70819;BMP280;58439;51.046;13.692;2023-05-10T07:16:47;99478.66;;;17.17
70819;BMP280;58439;51.046;13.692;2023-05-10T07:23:19;99469.09;;;17.11
70819;BMP280;58439;51.046;13.692;2023-05-10T07:25:51;99475.72;;;17.13
70819;BMP280;58439;51.046;13.692;2023-05-10T07:28:19;99467.00;;;17.13
70819;BMP280;58439;51.046;13.692;2023-05-10T07:30:47;99482.19;;;17.28
70819;BMP280;58439;51.046;13.692;2023-05-10T07:33:36;99478.03;;;17.42
70819;BMP280;58439;51.046;13.692;2023-05-10T07:36:12;99477.75;;;17.38
70819;BMP280;58439;51.046;13.692;2023-05-10T07:38:55;99479.59;;;17.38
70819;BMP280;58439;51.046;13.692;2023-05-10T07:41:31;99479.72;;;17.53
70819;BMP280;58439;51.046;13.692;2023-05-10T07:44:08;99476.34;;;17.63
70819;BMP280;58439;51.046;13.692;2023-05-10T07:46:38;99484.53;;;17.61
70819;BMP280;58439;51.046;13.692;2023-05-10T07:49:23;99482.97;;;17.65
70819;BMP280;58439;51.046;13.692;2023-05-10T07:52:40;99481.69;;;17.73
70819;BMP280;58439;51.046;13.692;2023-05-10T07:55:21;99479.13;;;17.83
70819;BMP280;58439;51.046;13.692;2023-05-10T07:58:22;99476.81;;;18.02
70819;BMP280;58439;51.046;13.692;2023-05-10T08:01:04;99482.16;;;18.17
70819;BMP280;58439;51.046;13.692;2023-05-10T08:03:31;99476.34;;;18.20
70819;BMP280;58439;51.046;13.692;2023-05-10T08:06:03;99479.53;;;18.22
70819;BMP280;58439;51.046;13.692;2023-05-10T08:08:31;99484.03;;;18.22
70819;BMP280;58439;51.046;13.692;2023-05-10T08:10:58;99480.56;;;18.16
70819;BMP280;58439;51.046;13.692;2023-05-10T08:13:25;99476.59;;;18.24
70819;BMP280;58439;51.046;13.692;2023-05-10T08:16:27;99480.38;;;18.43
70819;BMP280;58439;51.046;13.692;2023-05-10T08:21:00;99471.94;;;18.61
70819;BMP280;58439;51.046;13.692;2023-05-10T08:24:26;99480.19;;;18.75
70819;BMP280;58439;51.046;13.692;2023-05-10T08:32:34;99484.19;;;18.98
70819;BMP280;58439;51.046;13.692;2023-05-10T08:36:04;99484.16;;;19.18
70819;BMP280;58439;51.046;13.692;2023-05-10T08:40:13;99490.50;;;19.17
70819;BMP280;58439;51.046;13.692;2023-05-10T08:43:29;99496.06;;;19.26
70819;BMP280;58439;51.046;13.692;2023-05-10T08:47:06;99496.06;;;19.16
70819;BMP280;58439;51.046;13.692;2023-05-10T08:59:32;99510.59;;;19.69
70819;BMP280;58439;51.046;13.692;2023-05-10T09:03:21;99509.50;;;19.75
70819;BMP280;58439;51.046;13.692;2023-05-10T09:07:28;99507.88;;;19.84
70819;BMP280;58439;51.046;13.692;2023-05-10T09:10:00;99516.31;;;20.07
70819;BMP280;58439;51.046;13.692;2023-05-10T09:12:38;99518.66;;;20.13
70819;BMP280;58439;51.046;13.692;2023-05-10T09:15:22;99519.72;;;20.12
70819;BMP280;58439;51.046;13.692;2023-05-10T09:17:54;99516.16;;;20.32
70819;BMP280;58439;51.046;13.692;2023-05-10T09:21:04;99515.75;;;20.59
70819;BMP280;58439;51.046;13.692;2023-05-10T09:24:25;99515.19;;;20.57
70819;BMP280;58439;51.046;13.692;2023-05-10T09:26:57;99514.16;;;20.53
70819;BMP280;58439;51.046;13.692;2023-05-10T09:29:25;99518.91;;;20.61
70819;BMP280;58439;51.046;13.692;2023-05-10T09:32:05;99520.91;;;20.79
70819;BMP280;58439;51.046;13.692;2023-05-10T09:34:43;99519.66;;;21.06
70819;BMP280;58439;51.046;13.692;2023-05-10T09:42:27;99521.13;;;21.17
70819;BMP280;58439;51.046;13.692;2023-05-10T09:46:17;99518.75;;;21.15
70819;BMP280;58439;51.046;13.692;2023-05-10T09:49:34;99528.94;;;21.61
70819;BMP280;58439;51.046;13.692;2023-05-10T09:53:00;99523.31;;;21.86
70819;BMP280;58439;51.046;13.692;2023-05-10T09:55:46;99525.41;;;21.90
70819;BMP280;58439;51.046;13.692;2023-05-10T09:58:14;99534.16;;;22.14
70819;BMP280;58439;51.046;13.692;2023-05-10T10:00:47;99530.16;;;22.11
70819;BMP280;58439;51.046;13.692;2023-05-10T10:07:23;99527.09;;;22.04
70819;BMP280;58439;51.046;13.692;2023-05-10T10:09:53;99511.47;;;22.16
70819;BMP280;58439;51.046;13.692;2023-05-10T10:12:20;99521.50;;;22.25
70819;BMP280;58439;51.046;13.692;2023-05-10T10:14:47;99522.06;;;22.40
70819;BMP280;58439;51.046;13.692;2023-05-10T10:17:17;99523.44;;;22.57
70819;BMP280;58439;51.046;13.692;2023-05-10T10:19:45;99521.41;;;22.48
70819;BMP280;58439;51.046;13.692;2023-05-10T10:22:12;99519.22;;;22.50
70819;BMP280;58439;51.046;13.692;2023-05-10T10:24:40;99524.78;;;22.54
70819;BMP280;58439;51.046;13.692;2023-05-10T10:27:24;99518.06;;;22.75
70819;BMP280;58439;51.046;13.692;2023-05-10T10:30:14;99527.03;;;22.98
70819;BMP280;58439;51.046;13.692;2023-05-10T10:36:23;99522.09;;;22.73
70819;BMP280;58439;51.046;13.692;2023-05-10T10:39:42;99532.00;;;22.72
70819;BMP280;58439;51.046;13.692;2023-05-10T10:43:27;99528.88;;;22.98
70819;BMP280;58439;51.046;13.692;2023-05-10T10:46:18;99532.31;;;23.58
70819;BMP280;58439;51.046;13.692;2023-05-10T10:53:39;99528.03;;;23.98
70819;BMP280;58439;51.046;13.692;2023-05-10T10:56:23;99536.94;;;24.30
70819;BMP280;58439;51.046;13.692;2023-05-10T10:59:30;99535.97;;;25.32
70819;BMP280;58439;51.046;13.692;2023-05-10T11:02:34;99529.47;;;26.16
70819;BMP280;58439;51.046;13.692;2023-05-10T11:05:43;99532.31;;;26.83
70819;BMP280;58439;51.046;13.692;2023-05-10T11:21:00;99533.53;;;27.83
70819;BMP280;58439;51.046;13.692;2023-05-10T11:26:14;99534.72;;;26.85
70819;BMP280;58439;51.046;13.692;2023-05-10T11:28:46;99536.16;;;27.41
70819;BMP280;58439;51.046;13.692;2023-05-10T11:31:19;99540.84;;;27.74
70819;BMP280;58439;51.046;13.692;2023-05-10T11:33:52;99541.94;;;27.93
70819;BMP280;58439;51.046;13.692;2023-05-10T11:36:24;99541.38;;;28.42
70819;BMP280;58439;51.046;13.692;2023-05-10T11:38:52;99539.84;;;27.99
70819;BMP280;58439;51.046;13.692;2023-05-10T11:41:23;99552.28;;;27.62
70819;BMP280;58439;51.046;13.692;2023-05-10T11:43:53;99549.56;;;27.91
70819;BMP280;58439;51.046;13.692;2023-05-10T11:46:23;99539.59;;;28.25
70819;BMP280;58439;51.046;13.692;2023-05-10T11:48:52;99543.31;;;28.53
70819;BMP280;58439;51.046;13.692;2023-05-10T11:51:22;99545.66;;;28.67
70819;BMP280;58439;51.046;13.692;2023-05-10T11:54:23;99544.59;;;29.17
70819;BMP280;58439;51.046;13.692;2023-05-10T11:57:26;99545.34;;;29.17
70819;BMP280;58439;51.046;13.692;2023-05-10T12:00:02;99546.81;;;29.15
70819;BMP280;58439;51.046;13.692;2023-05-10T12:03:46;99550.94;;;29.49
70819;BMP280;58439;51.046;13.692;2023-05-10T12:06:21;99550.03;;;29.45
70819;BMP280;58439;51.046;13.692;2023-05-10T12:08:49;99551.84;;;29.81
70819;BMP280;58439;51.046;13.692;2023-05-10T12:11:20;99552.91;;;30.20
70819;BMP280;58439;51.046;13.692;2023-05-10T12:13:51;99555.47;;;30.00
70819;BMP280;58439;51.046;13.692;2023-05-10T12:16:22;99556.50;;;29.68
70819;BMP280;58439;51.046;13.692;2023-05-10T12:18:51;99551.63;;;29.73
70819;BMP280;58439;51.046;13.692;2023-05-10T12:21:20;99559.94;;;30.08
70819;BMP280;58439;51.046;13.692;2023-05-10T12:23:58;99564.03;;;30.77
70819;BMP280;58439;51.046;13.692;2023-05-10T12:26:33;99559.31;;;30.90
70819;BMP280;58439;51.046;13.692;2023-05-10T12:29:17;99561.91;;;30.39
70819;BMP280;58439;51.046;13.692;2023-05-10T12:31:56;99568.22;;;29.35
70819;BMP280;58439;51.046;13.692;2023-05-10T12:34:33;99562.16;;;28.53
70819;BMP280;58439;51.046;13.692;2023-05-10T12:37:03;99559.72;;;28.40
70819;BMP280;58439;51.046;13.692;2023-05-10T12:39:40;99570.28;;;28.12
70819;BMP280;58439;51.046;13.692;2023-05-10T12:42:24;99562.66;;;28.35
70819;BMP280;58439;51.046;13.692;2023-05-10T12:45:06;99568.56;;;28.73
70819;BMP280;58439;51.046;13.692;2023-05-10T12:47:37;99575.16;;;28.76
70819;BMP280;58439;51.046;13.692;2023-05-10T12:50:33;99575.34;;;28.46
70819;BMP280;58439;51.046;13.692;2023-05-10T12:53:15;99568.81;;;28.35
70819;BMP280;58439;51.046;13.692;2023-05-10T12:55:47;99574.31;;;28.84
70819;BMP280;58439;51.046;13.692;2023-05-10T12:58:14;99570.72;;;28.92
70819;BMP280;58439;51.046;13.692;2023-05-10T13:01:00;99576.19;;;28.71
70819;BMP280;58439;51.046;13.692;2023-05-10T13:03:27;99584.31;;;27.96
70819;BMP280;58439;51.046;13.692;2023-05-10T13:05:55;99582.88;;;27.78
70819;BMP280;58439;51.046;13.692;2023-05-10T13:08:22;99585.41;;;27.83
70819;BMP280;58439;51.046;13.692;2023-05-10T13:10:50;99579.03;;;27.88
70819;BMP280;58439;51.046;13.692;2023-05-10T13:13:17;99580.16;;;27.57
70819;BMP280;58439;51.046;13.692;2023-05-10T13:15:45;99582.94;;;27.40
70819;BMP280;58439;51.046;13.692;2023-05-10T13:18:13;99579.38;;;27.27
70819;BMP280;58439;51.046;13.692;2023-05-10T13:20:40;99585.22;;;27.30
70819;BMP280;58439;51.046;13.692;2023-05-10T13:23:19;99590.38;;;27.43
70819;BMP280;58439;51.046;13.692;2023-05-10T13:25:46;99584.56;;;26.95
70819;BMP280;58439;51.046;13.692;2023-05-10T13:28:13;99579.06;;;26.82
70819;BMP280;58439;51.046;13.692;2023-05-10T13:30:41;99587.91;;;26.83
70819;BMP280;58439;51.046;13.692;2023-05-10T13:33:11;99583.09;;;27.06
70819;BMP280;58439;51.046;13.692;2023-05-10T13:35:38;99582.03;;;27.36
70819;BMP280;58439;51.046;13.692;2023-05-10T13:38:05;99582.06;;;27.57
70819;BMP280;58439;51.046;13.692;2023-05-10T13:40:34;99579.31;;;27.66
70819;BMP280;58439;51.046;13.692;2023-05-10T13:43:02;99578.81;;;27.72
70819;BMP280;58439;51.046;13.692;2023-05-10T13:45:30;99577.19;;;28.01
70819;BMP280;58439;51.046;13.692;2023-05-10T13:47:57;99577.41;;;28.61
70819;BMP280;58439;51.046;13.692;2023-05-10T13:50:25;99581.94;;;28.94
70819;BMP280;58439;51.046;13.692;2023-05-10T13:52:52;99574.75;;;28.86
70819;BMP280;58439;51.046;13.692;2023-05-10T13:55:19;99574.19;;;28.92
70819;BMP280;58439;51.046;13.692;2023-05-10T13:57:47;99580.84;;;29.07
70819;BMP280;58439;51.046;13.692;2023-05-10T14:00:15;99582.63;;;29.27
70819;BMP280;58439;51.046;13.692;2023-05-10T14:02:43;99579.72;;;29.08
70819;BMP280;58439;51.046;13.692;2023-05-10T14:05:12;99583.84;;;29.18
70819;BMP280;58439;51.046;13.692;2023-05-10T14:07:39;99568.00;;;28.80
70819;BMP280;58439;51.046;13.692;2023-05-10T14:10:07;99573.75;;;28.45
70819;BMP280;58439;51.046;13.692;2023-05-10T14:12:35;99569.47;;;28.32
70819;BMP280;58439;51.046;13.692;2023-05-10T14:15:03;99583.53;;;27.96
70819;BMP280;58439;51.046;13.692;2023-05-10T14:17:32;99568.19;;;27.76
70819;BMP280;58439;51.046;13.692;2023-05-10T14:19:59;99573.28;;;27.69
70819;BMP280;58439;51.046;13.692;2023-05-10T14:22:26;99571.00;;;27.29
70819;BMP280;58439;51.046;13.692;2023-05-10T14:24:54;99562.78;;;26.79
70819;BMP280;58439;51.046;13.692;2023-05-10T14:27:21;99564.94;;;26.39
70819;BMP280;58439;51.046;13.692;2023-05-10T14:29:52;99568.38;;;25.79
70819;BMP280;58439;51.046;13.692;2023-05-10T14:32:45;99564.72;;;25.18
70819;BMP280;58439;51.046;13.692;2023-05-10T14:35:13;99565.72;;;25.31
70819;BMP280;58439;51.046;13.692;2023-05-10T14:37:44;99562.19;;;25.61
70819;BMP280;58439;51.046;13.692;2023-05-10T14:40:12;99569.94;;;25.71
70819;BMP280;58439;51.046;13.692;2023-05-10T14:42:39;99568.31;;;25.62
70819;BMP280;58439;51.046;13.692;2023-05-10T14:45:07;99562.66;;;25.63
70819;BMP280;58439;51.046;13.692;2023-05-10T14:47:34;99560.84;;;25.90
70819;BMP280;58439;51.046;13.692;2023-05-10T14:50:01;99562.69;;;25.80
70819;BMP280;58439;51.046;13.692;2023-05-10T14:52:29;99562.47;;;25.51
70819;BMP280;58439;51.046;13.692;2023-05-10T14:55:10;99563.38;;;25.07
70819;BMP280;58439;51.046;13.692;2023-05-10T14:57:37;99567.41;;;24.65
70819;BMP280;58439;51.046;13.692;2023-05-10T15:00:30;99575.31;;;24.70
70819;BMP280;58439;51.046;13.692;2023-05-10T15:03:10;99574.34;;;24.66
70819;BMP280;58439;51.046;13.692;2023-05-10T15:05:37;99571.16;;;24.86
70819;BMP280;58439;51.046;13.692;2023-05-10T15:08:05;99575.97;;;25.06
70819;BMP280;58439;51.046;13.692;2023-05-10T15:10:32;99578.59;;;25.20
70819;BMP280;58439;51.046;13.692;2023-05-10T15:13:04;99579.63;;;24.79
70819;BMP280;58439;51.046;13.692;2023-05-10T15:15:39;99587.88;;;24.47
70819;BMP280;58439;51.046;13.692;2023-05-10T15:18:06;99579.78;;;24.38
70819;BMP280;58439;51.046;13.692;2023-05-10T15:20:33;99583.91;;;24.89
70819;BMP280;58439;51.046;13.692;2023-05-10T15:23:04;99586.44;;;25.16
70819;BMP280;58439;51.046;13.692;2023-05-10T15:25:31;99582.66;;;25.57
70819;BMP280;58439;51.046;13.692;2023-05-10T15:28:01;99583.16;;;25.19
70819;BMP280;58439;51.046;13.692;2023-05-10T15:30:29;99579.00;;;24.38
70819;BMP280;58439;51.046;13.692;2023-05-10T15:32:57;99595.03;;;23.47
70819;BMP280;58439;51.046;13.692;2023-05-10T15:35:26;99594.56;;;22.80
70819;BMP280;58439;51.046;13.692;2023-05-10T15:37:53;99595.53;;;22.46
70819;BMP280;58439;51.046;13.692;2023-05-10T15:40:20;99591.72;;;22.34
70819;BMP280;58439;51.046;13.692;2023-05-10T15:42:48;99594.94;;;22.12
70819;BMP280;58439;51.046;13.692;2023-05-10T15:45:15;99587.56;;;21.80
70819;BMP280;58439;51.046;13.692;2023-05-10T15:47:43;99593.09;;;21.60
70819;BMP280;58439;51.046;13.692;2023-05-10T15:50:11;99588.75;;;21.40
70819;BMP280;58439;51.046;13.692;2023-05-10T15:52:51;99594.56;;;21.18
70819;BMP280;58439;51.046;13.692;2023-05-10T15:59:40;99597.25;;;20.74
70819;BMP280;58439;51.046;13.692;2023-05-10T16:02:12;99602.66;;;20.53
70819;BMP280;58439;51.046;13.692;2023-05-10T16:04:45;99600.09;;;20.33
70819;BMP280;58439;51.046;13.692;2023-05-10T16:07:13;99602.84;;;20.13
70819;BMP280;58439;51.046;13.692;2023-05-10T16:09:40;99610.28;;;20.06
70819;BMP280;58439;51.046;13.692;2023-05-10T16:12:08;99604.47;;;20.04
70819;BMP280;58439;51.046;13.692;2023-05-10T16:14:35;99602.31;;;20.06
70819;BMP280;58439;51.046;13.692;2023-05-10T16:17:05;99607.88;;;20.14
70819;BMP280;58439;51.046;13.692;2023-05-10T16:19:33;99607.06;;;20.19
70819;BMP280;58439;51.046;13.692;2023-05-10T16:22:04;99603.59;;;20.23
70819;BMP280;58439;51.046;13.692;2023-05-10T16:24:54;99610.53;;;20.19
70819;BMP280;58439;51.046;13.692;2023-05-10T16:27:39;99608.41;;;20.16
70819;BMP280;58439;51.046;13.692;2023-05-10T16:31:49;99610.50;;;20.24
70819;BMP280;58439;51.046;13.692;2023-05-10T16:42:56;99632.09;;;19.98
70819;BMP280;58439;51.046;13.692;2023-05-10T16:45:24;99631.31;;;19.92
70819;BMP280;58439;51.046;13.692;2023-05-10T16:47:55;99634.78;;;19.87
70819;BMP280;58439;51.046;13.692;2023-05-10T16:50:49;99635.31;;;19.79
70819;BMP280;58439;51.046;13.692;2023-05-10T16:53:22;99639.03;;;19.68
70819;BMP280;58439;51.046;13.692;2023-05-10T16:57:26;99636.63;;;19.67
70819;BMP280;58439;51.046;13.692;2023-05-10T17:00:22;99644.09;;;19.59
70819;BMP280;58439;51.046;13.692;2023-05-10T17:03:48;99658.41;;;19.63
70819;BMP280;58439;51.046;13.692;2023-05-10T17:07:12;99651.78;;;19.61
70819;BMP280;58439;51.046;13.692;2023-05-10T17:10:25;99646.97;;;19.58
70819;BMP280;58439;51.046;13.692;2023-05-10T17:12:53;99660.00;;;19.54
70819;BMP280;58439;51.046;13.692;2023-05-10T17:15:22;99652.31;;;19.38
70819;BMP280;58439;51.046;13.692;2023-05-10T17:17:49;99658.09;;;19.19
70819;BMP280;58439;51.046;13.692;2023-05-10T17:20:43;99659.72;;;19.20
70819;BMP280;58439;51.046;13.692;2023-05-10T17:23:21;99665.28;;;19.24
70819;BMP280;58439;51.046;13.692;2023-05-10T17:31:16;99667.56;;;18.90
70819;BMP280;58439;51.046;13.692;2023-05-10T17:37:29;99666.44;;;18.65
70819;BMP280;58439;51.046;13.692;2023-05-10T17:40:03;99666.38;;;18.60
70819;BMP280;58439;51.046;13.692;2023-05-10T17:42:32;99670.06;;;18.49
70819;BMP280;58439;51.046;13.692;2023-05-10T17:45:07;99675.06;;;18.46
70819;BMP280;58439;51.046;13.692;2023-05-10T17:47:36;99679.00;;;18.38
70819;BMP280;58439;51.046;13.692;2023-05-10T17:50:31;99677.66;;;18.41
70819;BMP280;58439;51.046;13.692;2023-05-10T17:56:42;99686.38;;;18.36
70819;BMP280;58439;51.046;13.692;2023-05-10T18:00:27;99687.34;;;18.20
70819;BMP280;58439;51.046;13.692;2023-05-10T18:07:42;99687.13;;;17.89
70819;BMP280;58439;51.046;13.692;2023-05-10T18:10:10;99691.00;;;17.82
70819;BMP280;58439;51.046;13.692;2023-05-10T18:12:37;99697.06;;;17.77
70819;BMP280;58439;51.046;13.692;2023-05-10T18:15:05;99693.91;;;17.80
70819;BMP280;58439;51.046;13.692;2023-05-10T18:17:35;99698.41;;;17.74
70819;BMP280;58439;51.046;13.692;2023-05-10T18:20:03;99703.91;;;17.73
70819;BMP280;58439;51.046;13.692;2023-05-10T18:22:30;99703.91;;;17.73
70819;BMP280;58439;51.046;13.692;2023-05-10T18:24:57;99712.34;;;17.70
70819;BMP280;58439;51.046;13.692;2023-05-10T18:27:25;99705.44;;;17.64
70819;BMP280;58439;51.046;13.692;2023-05-10T18:29:52;99707.78;;;17.60
70819;BMP280;58439;51.046;13.692;2023-05-10T18:32:19;99709.31;;;17.56
70819;BMP280;58439;51.046;13.692;2023-05-10T18:34:46;99709.03;;;17.58
70819;BMP280;58439;51.046;13.692;2023-05-10T18:37:13;99710.09;;;17.57
70819;BMP280;58439;51.046;13.692;2023-05-10T18:39:41;99710.31;;;17.50
70819;BMP280;58439;51.046;13.692;2023-05-10T18:42:08;99708.16;;;17.47
70819;BMP280;58439;51.046;13.692;2023-05-10T18:44:36;99714.19;;;17.42
70819;BMP280;58439;51.046;13.692;2023-05-10T18:47:03;99708.88;;;17.42
70819;BMP280;58439;51.046;13.692;2023-05-10T18:49:30;99712.56;;;17.41
70819;BMP280;58439;51.046;13.692;2023-05-10T18:52:11;99720.50;;;17.41
70819;BMP280;58439;51.046;13.692;2023-05-10T18:54:41;99718.38;;;17.38
70819;BMP280;58439;51.046;13.692;2023-05-10T18:57:09;99725.47;;;17.33